Time;durP1;ratioP1;P1;durP2;ratioP2;P2;SDS_P1;SDS_P2;PMS_P1;PMS_P2;Temp;Humidity;BMP_temperature;BMP_pressure;BME280_temperature;BME280_humidity;BME280_pressure;Samples;Min_cycle;Max_cycle;Signal;HPM_P1;HPM_P2
2021/05/18 00:00:59;;;;;;;7.57;3.97;;;12.80;99.90;;;;;;4101071;28;20277;-82
2021/05/18 00:03:00;;;;;;;8.48;3.67;;;12.80;99.90;;;;;;4119382;28;20030;-82
2021/05/18 00:05:01;;;;;;;7.72;4.10;;;12.90;99.90;;;;;;4122973;28;20034;-82
2021/05/18 00:07:01;;;;;;;12.98;4.47;;;12.80;99.90;;;;;;4117438;28;20051;-82
2021/05/18 00:13:45;;;;;;;9.52;4.70;;;12.90;99.90;;;;;;4119299;28;20088;-82
2021/05/18 00:15:47;;;;;;;;;;;12.90;99.90;;;;;;4106366;28;20059;-83
2021/05/18 00:17:48;;;;;;;13.73;5.38;;;12.70;99.90;;;;;;4122913;28;19992;-82
2021/05/18 00:19:49;;;;;;;9.30;5.03;;;12.70;99.90;;;;;;4104243;28;20581;-82
2021/05/18 00:21:50;;;;;;;10.13;5.53;;;12.60;99.90;;;;;;4119046;28;20031;-82
2021/05/18 00:23:51;;;;;;;11.80;5.13;;;12.60;99.90;;;;;;4100990;28;20507;-82
2021/05/18 00:25:52;;;;;;;12.30;5.05;;;12.50;99.90;;;;;;4101515;28;20121;-82
2021/05/18 00:27:52;;;;;;;10.45;5.00;;;12.50;99.90;;;;;;4108813;28;20045;-82
2021/05/18 00:29:53;;;;;;;10.15;5.07;;;12.50;99.90;;;;;;4100364;28;20083;-82
2021/05/18 00:31:54;;;;;;;11.13;5.03;;;12.50;99.90;;;;;;4132767;28;20054;-82
2021/05/18 00:33:54;;;;;;;15.07;5.78;;;12.50;99.90;;;;;;4099783;28;20028;-82
2021/05/18 00:35:55;;;;;;;9.05;5.00;;;12.50;99.90;;;;;;4108252;28;20042;-82
2021/05/18 00:37:55;;;;;;;7.82;4.65;;;12.50;99.90;;;;;;4124728;28;20046;-82
2021/05/18 00:39:56;;;;;;;9.85;4.72;;;12.50;99.90;;;;;;4102781;28;20035;-82
2021/05/18 00:41:57;;;;;;;9.80;4.68;;;12.40;99.90;;;;;;4106798;28;20035;-82
2021/05/18 00:43:57;;;;;;;10.90;4.82;;;12.50;99.90;;;;;;4121723;28;20038;-82
2021/05/18 00:45:58;;;;;;;10.02;4.65;;;12.50;99.90;;;;;;4122019;28;20034;-82
2021/05/18 00:48:00;;;;;;;8.95;5.18;;;12.50;99.90;;;;;;4120785;28;20319;-82
2021/05/18 00:50:01;;;;;;;11.10;5.15;;;12.40;99.90;;;;;;4102185;28;20027;-82
2021/05/18 00:52:03;;;;;;;11.00;5.35;;;12.50;99.90;;;;;;4121879;28;20057;-82
2021/05/18 00:54:07;;;;;;;9.80;5.53;;;12.50;99.90;;;;;;4125112;28;20393;-82
2021/05/18 00:56:20;;;;;;;12.50;5.55;;;12.40;99.90;;;;;;4106225;28;20023;-82
2021/05/18 00:58:32;;;;;;;9.32;4.63;;;12.40;99.90;;;;;;4107704;28;20159;-82
2021/05/18 01:00:33;;;;;;;10.50;5.10;;;12.40;99.90;;;;;;4141026;28;20073;-82
2021/05/18 01:02:34;;;;;;;10.43;5.35;;;12.40;99.90;;;;;;4111705;28;20019;-82
2021/05/18 01:04:40;;;;;;;8.02;4.68;;;12.40;99.90;;;;;;4122439;28;20086;-82
2021/05/18 01:06:42;;;;;;;10.07;5.28;;;12.40;99.90;;;;;;4124298;28;20040;-82
2021/05/18 01:08:43;;;;;;;9.93;5.10;;;12.50;99.90;;;;;;4123201;28;20037;-82
2021/05/18 01:10:44;;;;;;;8.00;5.10;;;12.50;99.90;;;;;;4120123;28;20042;-82
2021/05/18 01:12:45;;;;;;;10.57;5.45;;;12.40;99.90;;;;;;4123267;28;20042;-82
2021/05/18 01:14:46;;;;;;;12.32;5.40;;;12.50;99.90;;;;;;4123450;28;20031;-82
2021/05/18 01:16:48;;;;;;;10.40;5.28;;;12.50;99.90;;;;;;4120976;28;20122;-82
2021/05/18 01:18:49;;;;;;;10.70;5.50;;;12.50;99.90;;;;;;4102145;28;20042;-82
2021/05/18 01:20:55;;;;;;;13.93;5.88;;;12.50;99.90;;;;;;4121265;28;20054;-82
2021/05/18 01:22:55;;;;;;;8.60;4.97;;;12.40;99.90;;;;;;4121875;28;20041;-82
2021/05/18 01:24:56;;;;;;;8.50;5.32;;;12.40;99.90;;;;;;4105349;28;20416;-82
2021/05/18 01:26:56;;;;;;;8.77;4.97;;;12.50;99.90;;;;;;4107585;28;20109;-82
2021/05/18 01:28:57;;;;;;;8.65;5.15;;;12.50;99.90;;;;;;4124131;28;20065;-82
2021/05/18 01:31:00;;;;;;;7.82;4.60;;;12.50;99.90;;;;;;4122479;28;20035;-82
2021/05/18 01:33:02;;;;;;;11.70;5.35;;;12.40;99.90;;;;;;4104126;28;20071;-82
2021/05/18 01:35:04;;;;;;;9.93;5.63;;;12.50;99.90;;;;;;4102762;28;20495;-82
2021/05/18 01:37:05;;;;;;;9.70;5.22;;;12.50;99.90;;;;;;4107192;28;20403;-82
2021/05/18 01:43:38;;;;;;;10.65;5.03;;;12.40;99.90;;;;;;4123516;28;20394;-81
2021/05/18 01:45:41;;;;;;;12.88;5.72;;;12.40;99.90;;;;;;4119373;28;20057;-82
2021/05/18 01:47:48;;;;;;;12.10;5.78;;;12.40;99.90;;;;;;4118606;28;20034;-81
2021/05/18 01:49:49;;;;;;;16.02;6.72;;;12.40;99.90;;;;;;4121741;28;20106;-81
2021/05/18 01:51:54;;;;;;;14.07;6.45;;;12.40;99.90;;;;;;4104501;28;20027;-81
2021/05/18 01:53:58;;;;;;;10.00;6.07;;;12.40;99.90;;;;;;4119556;28;20503;-81
2021/05/18 01:56:17;;;;;;;12.98;6.50;;;12.40;99.90;;;;;;4123781;28;20027;-81
2021/05/18 01:58:18;;;;;;;10.35;6.22;;;12.30;99.90;;;;;;4124074;28;20098;-81
2021/05/18 02:00:22;;;;;;;10.57;5.95;;;12.30;99.90;;;;;;4106512;28;20057;-81
2021/05/18 02:02:23;;;;;;;11.50;5.75;;;12.30;99.90;;;;;;4105670;28;20027;-81
2021/05/18 02:04:29;;;;;;;11.73;6.97;;;12.30;99.90;;;;;;4120645;28;20046;-81
2021/05/18 02:06:30;;;;;;;10.98;6.50;;;12.40;99.90;;;;;;4102809;28;20111;-80
2021/05/18 02:08:31;;;;;;;14.20;7.07;;;12.30;99.90;;;;;;4104374;28;20105;-80
2021/05/18 02:10:32;;;;;;;12.65;7.38;;;12.40;99.90;;;;;;4121694;28;20047;-80
2021/05/18 02:12:33;;;;;;;11.40;7.60;;;12.40;99.90;;;;;;4102224;28;20030;-81
2021/05/18 02:14:36;;;;;;;9.70;6.80;;;12.40;99.90;;;;;;4120046;28;20383;-80
2021/05/18 02:16:39;;;;;;;11.13;7.15;;;12.40;99.90;;;;;;4122216;28;20038;-81
2021/05/18 02:20:46;;;;;;;10.05;7.38;;;12.30;99.90;;;;;;4120316;28;20129;-81
2021/05/18 02:25:04;;;;;;;13.27;7.88;;;12.30;99.90;;;;;;4121965;28;20372;-80
2021/05/18 02:27:04;;;;;;;11.48;7.63;;;12.30;99.90;;;;;;4120873;28;20387;-80
2021/05/18 02:29:05;;;;;;;8.93;7.18;;;12.30;99.90;;;;;;4119095;28;20357;-81
2021/05/18 02:31:06;;;;;;;11.30;7.55;;;12.30;99.90;;;;;;4102583;28;20042;-81
2021/05/18 02:33:07;;;;;;;11.25;8.18;;;12.30;99.90;;;;;;4119437;28;20030;-81
2021/05/18 02:35:10;;;;;;;13.77;8.07;;;12.30;99.90;;;;;;4118378;28;20027;-81
2021/05/18 02:37:10;;;;;;;;;;;12.20;99.90;;;;;;4119712;28;20518;-81
2021/05/18 02:39:11;;;;;;;12.98;8.45;;;12.20;99.90;;;;;;4119503;28;19914;-81
2021/05/18 02:41:12;;;;;;;11.75;8.00;;;12.20;99.90;;;;;;4120991;28;20084;-81
2021/05/18 02:43:18;;;;;;;12.38;8.30;;;12.20;99.90;;;;;;4122080;28;20051;-81
2021/05/18 02:45:32;;;;;;;12.88;7.72;;;12.20;99.90;;;;;;4120752;28;20038;-81
2021/05/18 02:49:52;;;;;;;11.40;6.97;;;12.20;99.90;;;;;;4122115;28;20046;-80
2021/05/18 02:51:52;;;;;;;9.35;6.68;;;12.20;99.90;;;;;;4101443;28;20402;-80
2021/05/18 02:53:53;;;;;;;8.93;6.45;;;12.20;99.90;;;;;;4117328;28;20053;-81
2021/05/18 02:56:02;;;;;;;9.38;6.43;;;12.20;99.90;;;;;;4119215;28;20332;-80
2021/05/18 02:58:06;;;;;;;8.73;6.57;;;12.20;99.90;;;;;;4108275;28;20062;-80
2021/05/18 03:00:11;;;;;;;10.40;6.68;;;12.20;99.90;;;;;;4121549;28;20039;-80
2021/05/18 03:02:11;;;;;;;8.98;6.70;;;12.20;99.90;;;;;;4103814;28;20090;-80
2021/05/18 03:04:12;;;;;;;10.05;7.32;;;12.20;99.90;;;;;;4102465;28;20031;-80
2021/05/18 03:06:12;;;;;;;8.80;6.10;;;12.20;99.90;;;;;;4121093;28;20030;-80
2021/05/18 03:08:13;;;;;;;8.82;6.20;;;12.20;99.90;;;;;;4107177;28;20023;-80
2021/05/18 03:10:15;;;;;;;8.68;6.78;;;12.20;99.90;;;;;;4121361;28;20070;-80
2021/05/18 03:12:16;;;;;;;10.13;5.70;;;12.10;99.90;;;;;;4102933;28;20042;-80
2021/05/18 03:14:17;;;;;;;8.90;6.40;;;12.10;99.90;;;;;;4121557;28;20107;-80
2021/05/18 03:16:18;;;;;;;8.30;6.75;;;12.10;99.90;;;;;;4115659;28;20488;-80
2021/05/18 03:18:18;;;;;;;7.90;6.28;;;12.10;99.90;;;;;;4104597;28;20034;-80
2021/05/18 03:20:19;;;;;;;9.10;6.03;;;12.10;99.90;;;;;;4117850;28;20057;-80
2021/05/18 03:22:19;;;;;;;8.52;5.88;;;12.10;99.90;;;;;;4119379;28;20022;-80
2021/05/18 03:24:20;;;;;;;9.65;6.82;;;12.10;99.90;;;;;;4120200;28;20062;-80
2021/05/18 03:26:21;;;;;;;8.13;5.80;;;12.10;99.90;;;;;;4104645;28;20046;-80
2021/05/18 03:28:22;;;;;;;7.35;5.85;;;12.10;99.90;;;;;;4117415;28;20041;-81
2021/05/18 03:34:43;;;;;;;12.90;6.93;;;12.10;99.90;;;;;;4118780;28;20054;-80
2021/05/18 03:36:43;;;;;;;12.25;7.13;;;12.10;99.90;;;;;;4117378;28;20038;-80
2021/05/18 03:38:48;;;;;;;12.18;7.38;;;12.10;99.90;;;;;;4119770;28;20561;-81
2021/05/18 03:40:58;;;;;;;10.20;6.40;;;12.10;99.90;;;;;;4116672;28;20035;-80
2021/05/18 03:43:11;;;;;;;9.40;7.03;;;12.10;99.90;;;;;;4118722;28;20054;-81
2021/05/18 03:45:22;;;;;;;8.55;6.97;;;12.10;99.90;;;;;;4121814;28;20030;-81
2021/05/18 03:52:24;;;;;;;8.40;6.47;;;12.20;99.90;;;;;;4113182;28;20490;-81
2021/05/18 04:03:28;;;;;;;9.05;7.10;;;12.20;99.90;;;;;;4123322;28;20129;-81
2021/05/18 04:19:11;;;;;;;8.05;5.78;;;12.10;99.90;;;;;;4101751;28;20443;-80
2021/05/18 04:21:19;;;;;;;8.63;6.53;;;12.20;99.90;;;;;;4095474;28;20032;-81
2021/05/18 04:52:53;;;;;;;8.02;6.07;;;12.20;99.90;;;;;;4121805;28;20065;-81
2021/05/18 05:00:10;;;;;;;9.82;6.18;;;12.20;99.90;;;;;;4119915;28;20046;-81
2021/05/18 05:03:54;;;;;;;12.05;7.20;;;12.20;99.90;;;;;;4114489;28;20046;-81
2021/05/18 05:10:15;;;;;;;9.55;6.65;;;12.10;99.90;;;;;;4120097;28;20122;-80
2021/05/18 05:16:25;;;;;;;13.93;8.65;;;12.20;99.90;;;;;;4122728;28;20035;-81
2021/05/18 05:18:26;;;;;;;12.32;8.00;;;12.20;99.90;;;;;;4110494;28;20118;-80
2021/05/18 05:20:27;;;;;;;10.32;7.43;;;12.20;99.90;;;;;;4108684;28;20027;-81
2021/05/18 05:22:27;;;;;;;10.05;7.57;;;12.20;99.90;;;;;;4118825;28;20080;-81
2021/05/18 05:24:29;;;;;;;12.45;8.13;;;12.20;99.90;;;;;;4122270;28;20031;-80
2021/05/18 05:26:30;;;;;;;16.70;10.13;;;12.30;99.90;;;;;;4125376;28;20030;-81
2021/05/18 05:28:31;;;;;;;18.60;9.20;;;12.30;99.90;;;;;;4109852;28;21557;-80
2021/05/18 05:30:31;;;;;;;13.60;10.10;;;12.20;99.90;;;;;;4103934;28;20484;-81
2021/05/18 05:32:32;;;;;;;15.00;9.77;;;12.20;99.90;;;;;;4107220;28;20031;-81
2021/05/18 05:34:33;;;;;;;15.50;10.30;;;12.20;99.90;;;;;;4127758;28;20093;-81
2021/05/18 05:36:34;;;;;;;18.58;11.43;;;12.20;99.90;;;;;;4081339;28;20098;-81
2021/05/18 05:38:35;;;;;;;13.68;10.13;;;12.20;99.90;;;;;;4125347;28;20038;-81
2021/05/18 05:40:35;;;;;;;14.52;9.20;;;12.20;99.90;;;;;;4126729;28;20398;-81
2021/05/18 05:42:36;;;;;;;17.05;10.45;;;12.20;99.90;;;;;;4127478;28;20033;-81
2021/05/18 05:44:37;;;;;;;18.13;12.13;;;12.20;99.90;;;;;;4124572;28;20331;-81
2021/05/18 05:46:38;;;;;;;15.88;10.98;;;12.20;99.90;;;;;;4109908;28;20046;-81
2021/05/18 05:48:39;;;;;;;18.30;11.98;;;12.20;99.90;;;;;;4118000;28;20066;-81
2021/05/18 05:50:39;;;;;;;16.45;10.75;;;12.20;99.90;;;;;;4119420;28;20554;-81
2021/05/18 05:52:40;;;;;;;17.48;11.85;;;12.20;99.90;;;;;;4126635;28;20058;-81
2021/05/18 05:54:40;;;;;;;13.75;10.75;;;12.20;99.90;;;;;;4109833;28;20042;-81
2021/05/18 05:56:41;;;;;;;13.85;10.20;;;12.20;99.90;;;;;;4125660;28;20026;-81
2021/05/18 05:58:42;;;;;;;15.07;10.43;;;12.30;99.90;;;;;;4122116;28;20509;-81
2021/05/18 06:00:43;;;;;;;18.00;11.52;;;12.30;99.90;;;;;;4103400;28;20051;-81
2021/05/18 06:02:43;;;;;;;17.98;11.77;;;12.30;99.90;;;;;;4119816;28;20173;-81
2021/05/18 06:04:44;;;;;;;19.17;11.57;;;12.30;99.90;;;;;;4107696;28;20078;-81
2021/05/18 06:06:44;;;;;;;18.95;11.73;;;12.40;99.90;;;;;;4126745;28;20101;-81
2021/05/18 06:08:46;;;;;;;17.75;11.63;;;12.40;99.90;;;;;;4123966;28;20026;-78
2021/05/18 06:10:50;;;;;;;16.08;10.55;;;12.40;99.90;;;;;;4122651;28;20026;-77
2021/05/18 06:17:56;;;;;;;23.70;13.98;;;12.50;99.90;;;;;;4124467;28;20748;-77
2021/05/18 06:34:15;;;;;;;23.48;13.55;;;12.70;99.90;;;;;;4121090;28;20711;-79
2021/05/18 06:43:15;;;;;;;19.67;13.45;;;12.80;99.90;;;;;;4126063;28;20084;-77
2021/05/18 06:47:37;;;;;;;21.58;14.63;;;12.80;99.90;;;;;;4135659;28;20038;-79
2021/05/18 06:49:41;;;;;;;17.50;13.25;;;12.90;99.90;;;;;;4105066;28;20166;-78
2021/05/18 06:51:42;;;;;;;24.55;15.13;;;12.90;99.90;;;;;;4128584;28;20078;-78
2021/05/18 06:53:42;;;;;;;23.35;14.32;;;12.90;99.90;;;;;;4122785;28;20031;-78
2021/05/18 06:55:44;;;;;;;22.17;14.60;;;13.00;99.90;;;;;;4123436;28;20035;-78
2021/05/18 06:57:50;;;;;;;19.52;14.32;;;12.90;99.90;;;;;;4123296;28;20026;-78
2021/05/18 07:00:08;;;;;;;24.25;14.90;;;13.00;99.90;;;;;;4122648;28;20038;-78
2021/05/18 07:02:09;;;;;;;21.45;14.15;;;13.00;99.90;;;;;;4126959;28;20042;-78
2021/05/18 07:04:11;;;;;;;22.65;14.93;;;13.00;99.90;;;;;;4125181;28;20047;-78
2021/05/18 07:10:35;;;;;;;19.05;14.15;;;13.10;99.90;;;;;;4122488;28;20027;-78
2021/05/18 07:12:36;;;;;;;19.67;14.38;;;13.10;99.90;;;;;;4127245;28;20553;-78
2021/05/18 07:14:37;;;;;;;25.13;16.13;;;13.10;99.90;;;;;;4123304;28;20039;-78
2021/05/18 07:16:38;;;;;;;19.60;14.05;;;13.10;99.90;;;;;;4122921;28;20495;-79
2021/05/18 07:18:38;;;;;;;22.77;13.93;;;13.10;99.90;;;;;;4120166;28;20038;-76
2021/05/18 07:20:39;;;;;;;22.65;14.85;;;13.20;99.90;;;;;;4125927;28;20039;-77
2021/05/18 07:22:40;;;;;;;23.10;15.02;;;13.20;99.90;;;;;;4128248;28;20182;-76
2021/05/18 07:24:43;;;;;;;24.98;14.32;;;13.20;99.90;;;;;;4126934;28;20042;-76
2021/05/18 07:26:45;;;;;;;19.77;13.95;;;13.20;99.90;;;;;;4107284;28;20438;-76
2021/05/18 07:28:45;;;;;;;23.25;15.90;;;13.20;99.90;;;;;;4108002;28;20054;-77
2021/05/18 07:30:48;;;;;;;23.30;16.35;;;13.20;99.90;;;;;;4106387;28;20043;-76
2021/05/18 07:32:49;;;;;;;23.55;15.90;;;13.20;99.90;;;;;;4123543;28;20046;-77
2021/05/18 07:34:54;;;;;;;23.55;16.40;;;13.20;99.90;;;;;;4111515;28;20414;-79
2021/05/18 07:36:58;;;;;;;22.65;15.73;;;13.20;99.90;;;;;;4125541;28;20390;-78
2021/05/18 07:38:59;;;;;;;29.52;17.00;;;13.10;99.90;;;;;;4126600;28;20481;-80
2021/05/18 07:41:00;;;;;;;22.10;14.65;;;13.10;99.90;;;;;;4102148;28;20046;-79
2021/05/18 07:43:04;;;;;;;26.67;14.82;;;13.20;99.90;;;;;;4126049;28;20110;-78
2021/05/18 07:45:08;;;;;;;21.35;14.85;;;13.20;99.90;;;;;;4128619;28;20054;-78
2021/05/18 07:47:12;;;;;;;23.08;15.50;;;13.20;99.90;;;;;;4128967;28;20114;-78
2021/05/18 07:49:15;;;;;;;23.17;15.65;;;13.20;99.90;;;;;;4130775;28;20121;-78
2021/05/18 08:00:40;;;;;;;20.40;14.40;;;13.30;99.90;;;;;;4128977;28;20057;-79
2021/05/18 08:05:19;;;;;;;21.15;13.38;;;13.40;99.90;;;;;;4132412;28;20479;-78
2021/05/18 08:07:21;;;;;;;21.02;13.02;;;13.40;99.90;;;;;;4137333;28;20137;-78
2021/05/18 08:09:23;;;;;;;24.15;13.98;;;13.50;99.90;;;;;;4126381;28;20101;-78
2021/05/18 08:11:25;;;;;;;19.92;12.88;;;13.60;99.90;;;;;;4138258;28;20034;-78
2021/05/18 08:13:25;;;;;;;22.42;14.80;;;13.70;99.90;;;;;;4126031;28;20371;-78
2021/05/18 08:17:43;;;;;;;20.67;15.23;;;13.70;99.90;;;;;;4133168;28;20049;-78
2021/05/18 09:37:22;;;;;;;19.67;14.20;;;14.30;99.90;;;;;;4125094;28;20177;-77
2021/05/18 09:49:57;;;;;;;16.85;12.68;;;14.80;99.90;;;;;;4129645;28;20073;-77
2021/05/18 10:38:08;;;;;;;11.80;6.13;;;15.40;99.90;;;;;;4123490;28;20045;-78
2021/05/18 10:40:31;;;;;;;7.55;6.07;;;15.40;99.90;;;;;;4125821;28;20053;-77
2021/05/18 10:42:32;;;;;;;7.30;5.65;;;15.30;99.90;;;;;;4122958;28;20109;-78
2021/05/18 10:44:54;;;;;;;7.82;6.28;;;15.30;99.90;;;;;;4123549;28;20034;-78
2021/05/18 10:46:58;;;;;;;10.77;5.63;;;15.30;99.90;;;;;;4119668;28;20165;-78
2021/05/18 10:49:00;;;;;;;7.82;5.63;;;15.40;99.90;;;;;;4110595;28;20038;-78
2021/05/18 10:51:20;;;;;;;6.78;4.85;;;15.40;99.90;;;;;;4122351;28;20027;-77
2021/05/18 10:53:25;;;;;;;7.93;6.25;;;15.40;99.90;;;;;;4119707;28;20056;-77
2021/05/18 10:55:26;;;;;;;9.05;5.68;;;15.50;99.90;;;;;;4103510;28;20046;-77
2021/05/18 10:57:30;;;;;;;7.68;5.22;;;15.50;99.90;;;;;;4122867;28;20546;-78
2021/05/18 10:59:43;;;;;;;5.93;5.13;;;15.60;99.90;;;;;;4124704;28;20498;-78
2021/05/18 11:01:45;;;;;;;8.38;5.28;;;15.60;99.90;;;;;;4122129;28;20046;-77
2021/05/18 11:03:46;;;;;;;7.80;5.50;;;15.70;99.90;;;;;;4123680;28;20050;-78
2021/05/18 11:05:50;;;;;;;5.95;5.07;;;15.80;99.90;;;;;;4119477;28;20030;-77
2021/05/18 11:07:51;;;;;;;7.22;5.38;;;15.80;99.90;;;;;;4122991;28;20030;-78
2021/05/18 11:09:54;;;;;;;6.70;5.43;;;15.90;99.90;;;;;;4115555;28;20050;-77
2021/05/18 11:12:02;;;;;;;13.80;5.22;;;16.00;99.90;;;;;;4120468;28;20641;-77
2021/05/18 11:14:03;;;;;;;7.63;5.50;;;16.10;99.90;;;;;;4121929;28;20030;-77
2021/05/18 11:16:14;;;;;;;9.98;5.70;;;16.20;99.90;;;;;;4126767;28;20589;-77
2021/05/18 11:18:14;;;;;;;7.05;5.30;;;16.30;99.90;;;;;;4117430;28;20031;-78
2021/05/18 11:20:56;;;;;;;8.20;6.20;;;16.30;99.90;;;;;;4120830;28;20044;-77
2021/05/18 11:25:14;;;;;;;7.72;5.68;;;16.40;99.90;;;;;;4120039;28;20038;-77
2021/05/18 11:27:28;;;;;;;9.50;6.82;;;16.40;99.90;;;;;;4122003;28;20053;-78
2021/05/18 11:29:41;;;;;;;6.75;5.40;;;16.40;99.90;;;;;;4116857;28;20046;-78
2021/05/18 11:31:44;;;;;;;;;;;16.40;99.90;;;;;;4123994;28;21858;-78
2021/05/18 11:33:47;;;;;;;8.30;5.23;;;16.40;99.90;;;;;;4121228;28;19917;-77
2021/05/18 11:36:21;;;;;;;9.27;6.85;;;16.40;99.90;;;;;;4121172;28;20053;-77
2021/05/18 11:38:27;;;;;;;7.75;5.53;;;16.30;99.90;;;;;;4098730;28;20101;-77
2021/05/18 11:40:28;;;;;;;8.30;6.22;;;16.20;99.90;;;;;;4117334;28;20039;-77
2021/05/18 11:42:29;;;;;;;10.48;6.90;;;16.20;99.90;;;;;;4121747;28;20026;-78
2021/05/18 11:44:34;;;;;;;10.32;6.18;;;16.10;99.90;;;;;;4119810;28;20511;-77
2021/05/18 11:46:43;;;;;;;8.50;5.78;;;16.00;99.90;;;;;;4121498;28;20031;-77
2021/05/18 11:49:02;;;;;;;8.10;5.88;;;15.90;99.90;;;;;;4124903;28;20627;-77
2021/05/18 11:51:09;;;;;;;10.52;5.15;;;15.60;99.90;;;;;;4115945;28;20081;-76
2021/05/18 11:53:27;;;;;;;5.75;3.92;;;15.50;99.90;;;;;;4116633;28;20133;-76
2021/05/18 11:55:30;;;;;;;6.75;3.83;;;15.20;99.90;;;;;;4116329;28;20043;-76
2021/05/18 11:57:36;;;;;;;7.20;3.90;;;15.00;99.90;;;;;;4121411;28;20038;-76
2021/05/18 11:59:37;;;;;;;7.38;4.03;;;15.00;99.90;;;;;;4119955;28;20509;-76
2021/05/18 12:01:52;;;;;;;4.72;3.28;;;14.90;99.90;;;;;;4119940;28;20042;-76
2021/05/18 12:04:02;;;;;;;5.97;3.83;;;14.70;99.90;;;;;;4118811;28;20451;-77
2021/05/18 12:06:05;;;;;;;7.20;4.32;;;14.60;99.90;;;;;;4123001;28;20113;-77
2021/05/18 12:08:06;;;;;;;4.57;3.70;;;14.60;99.90;;;;;;4128204;28;20589;-76
2021/05/18 12:10:07;;;;;;;6.95;4.40;;;14.40;99.90;;;;;;4124571;28;20035;-76
2021/05/18 12:12:11;;;;;;;7.07;4.25;;;14.40;99.90;;;;;;4116544;28;20387;-76
2021/05/18 12:14:12;;;;;;;6.18;4.07;;;14.40;99.90;;;;;;4123334;28;20407;-76
2021/05/18 12:16:14;;;;;;;6.97;3.80;;;14.40;99.90;;;;;;4122862;28;20049;-77
2021/05/18 12:18:15;;;;;;;5.10;3.92;;;14.40;99.90;;;;;;4126636;28;20061;-77
2021/05/18 12:20:17;;;;;;;6.20;4.13;;;14.40;99.90;;;;;;4124451;28;20080;-77
2021/05/18 12:22:18;;;;;;;8.02;4.68;;;14.30;99.90;;;;;;4120175;28;20043;-76
2021/05/18 12:24:21;;;;;;;6.20;4.10;;;14.30;99.90;;;;;;4121700;28;20094;-76
2021/05/18 12:26:22;;;;;;;6.40;3.80;;;14.30;99.90;;;;;;4124794;28;20035;-77
2021/05/18 12:28:23;;;;;;;4.82;3.35;;;14.40;99.90;;;;;;4119986;28;20108;-77
2021/05/18 12:30:43;;;;;;;6.32;3.70;;;14.40;99.90;;;;;;4118090;28;20046;-77
2021/05/18 12:32:48;;;;;;;5.45;3.10;;;14.50;99.90;;;;;;4127113;28;20038;-77
2021/05/18 12:35:15;;;;;;;5.72;3.35;;;14.60;99.90;;;;;;4130322;28;20394;-77
2021/05/18 12:37:17;;;;;;;6.78;3.97;;;14.70;99.90;;;;;;4122231;28;20039;-77
2021/05/18 12:39:17;;;;;;;3.75;3.10;;;14.80;99.90;;;;;;4127538;28;20046;-77
2021/05/18 12:41:18;;;;;;;5.00;3.50;;;14.90;99.90;;;;;;4124001;28;20031;-77
2021/05/18 12:43:23;;;;;;;4.45;2.88;;;14.90;99.90;;;;;;4129627;28;20514;-77
2021/05/18 12:45:26;;;;;;;3.15;2.53;;;15.00;99.90;;;;;;4127046;28;20074;-76
2021/05/18 12:47:35;;;;;;;6.70;3.00;;;15.10;99.90;;;;;;4129554;28;20034;-77
2021/05/18 12:49:38;;;;;;;3.53;3.00;;;15.20;99.90;;;;;;4127389;28;20064;-77
2021/05/18 12:51:38;;;;;;;4.35;3.53;;;15.30;99.90;;;;;;4126238;28;20044;-76
2021/05/18 12:53:39;;;;;;;6.20;3.78;;;15.50;99.90;;;;;;4109991;28;20439;-77
2021/05/18 12:55:41;;;;;;;4.32;3.17;;;15.60;99.90;;;;;;4127488;28;20062;-77
2021/05/18 12:57:57;;;;;;;5.93;3.65;;;15.70;99.90;;;;;;4114291;28;20031;-77
2021/05/18 13:00:10;;;;;;;4.68;3.03;;;15.80;99.90;;;;;;4127391;28;20073;-77
2021/05/18 13:02:27;;;;;;;4.45;3.63;;;15.80;99.90;;;;;;4126987;28;20181;-77
2021/05/18 13:04:37;;;;;;;6.00;3.45;;;15.80;99.90;;;;;;4127856;28;20048;-77
2021/05/18 13:06:48;;;;;;;4.03;3.20;;;15.80;99.90;;;;;;4123018;28;20478;-77
2021/05/18 13:08:50;;;;;;;3.08;2.47;;;15.80;99.90;;;;;;4133803;28;20062;-76
2021/05/18 13:11:08;;;;;;;3.60;2.70;;;15.80;99.90;;;;;;4125637;28;20058;-77
2021/05/18 13:13:09;;;;;;;3.10;2.50;;;15.80;99.90;;;;;;4126482;28;20683;-77
2021/05/18 13:15:12;;;;;;;3.67;3.08;;;15.90;99.90;;;;;;4132460;28;20414;-77
2021/05/18 13:17:14;;;;;;;4.47;3.10;;;15.90;99.90;;;;;;4127905;28;20072;-76
2021/05/18 13:19:18;;;;;;;3.50;2.78;;;15.90;99.90;;;;;;4129091;28;20065;-77
2021/05/18 13:21:40;;;;;;;4.22;3.05;;;16.00;99.90;;;;;;4130227;28;20794;-77
2021/05/18 13:23:54;;;;;;;3.30;2.80;;;16.00;99.90;;;;;;4124773;28;20674;-77
2021/05/18 13:28:21;;;;;;;4.88;2.78;;;16.20;99.90;;;;;;4125812;28;20031;-77
2021/05/18 13:30:24;;;;;;;4.03;3.60;;;16.20;99.90;;;;;;4130996;28;20119;-77
2021/05/18 13:32:24;;;;;;;5.72;3.08;;;16.30;99.90;;;;;;4128206;28;20094;-77
2021/05/18 13:34:25;;;;;;;3.83;2.90;;;16.30;99.90;;;;;;4128302;28;20038;-77
2021/05/18 13:36:33;;;;;;;6.00;2.67;;;16.40;99.90;;;;;;4118571;28;20058;-77
2021/05/18 13:38:34;;;;;;;3.88;3.15;;;16.50;99.90;;;;;;4127856;28;20371;-76
2021/05/18 13:40:36;;;;;;;5.15;3.90;;;16.50;99.90;;;;;;4133381;28;20026;-76
2021/05/18 13:42:37;;;;;;;6.85;4.93;;;16.40;99.90;;;;;;4123044;28;20395;-77
2021/05/18 13:44:39;;;;;;;7.05;4.78;;;16.40;99.90;;;;;;4123359;28;20077;-76
2021/05/18 13:46:40;;;;;;;5.88;4.22;;;16.40;99.90;;;;;;4128887;28;20334;-76
2021/05/18 13:48:41;;;;;;;4.72;3.80;;;16.30;99.90;;;;;;4124154;28;20030;-77
2021/05/18 13:50:41;;;;;;;4.00;3.60;;;16.30;99.90;;;;;;4131620;28;20136;-77
2021/05/18 13:52:42;;;;;;;4.60;3.80;;;16.40;99.90;;;;;;4131555;28;20539;-77
2021/05/18 13:54:43;;;;;;;6.57;4.50;;;16.50;99.90;;;;;;4129667;28;20035;-77
2021/05/18 13:56:45;;;;;;;5.88;4.40;;;16.60;99.90;;;;;;4126493;28;20046;-77
2021/05/18 13:58:46;;;;;;;4.63;3.67;;;16.70;99.90;;;;;;4128920;28;20138;-77
2021/05/18 14:00:46;;;;;;;4.40;3.90;;;16.70;99.90;;;;;;4124127;28;20546;-77
2021/05/18 14:02:48;;;;;;;3.88;3.35;;;16.70;99.90;;;;;;4134237;28;20072;-77
2021/05/18 14:04:48;;;;;;;4.65;2.50;;;16.60;99.90;;;;;;4109538;28;20033;-77
2021/05/18 14:07:11;;;;;;;2.75;1.98;;;16.50;99.90;;;;;;4123798;28;20050;-76
2021/05/18 14:09:12;;;;;;;3.83;1.80;;;16.50;99.90;;;;;;4124224;28;20027;-76
2021/05/18 14:11:20;;;;;;;2.33;1.85;;;16.30;99.90;;;;;;4122896;28;20049;-77
2021/05/18 14:13:23;;;;;;;2.97;1.33;;;16.30;99.90;;;;;;4105596;28;20095;-77
2021/05/18 14:15:24;;;;;;;;;;;16.40;99.90;;;;;;4127478;28;20088;-77
2021/05/18 14:17:24;;;;;;;1.58;0.80;;;16.40;99.90;;;;;;4125021;28;19918;-77
2021/05/18 14:19:25;;;;;;;1.45;0.88;;;16.40;99.90;;;;;;4129352;28;20573;-77
2021/05/18 14:21:26;;;;;;;1.95;0.68;;;16.40;99.90;;;;;;4109300;28;20490;-77
2021/05/18 14:23:32;;;;;;;1.35;1.08;;;16.50;99.90;;;;;;4123577;28;20697;-76
2021/05/18 14:25:33;;;;;;;1.48;0.98;;;16.60;99.90;;;;;;4123659;28;20041;-77
2021/05/18 14:27:35;;;;;;;2.42;1.80;;;16.70;99.90;;;;;;4123218;28;20050;-76
2021/05/18 14:29:36;;;;;;;5.63;2.03;;;16.80;99.90;;;;;;4120852;28;20422;-77
2021/05/18 14:31:37;;;;;;;3.58;2.60;;;16.80;99.90;;;;;;4121638;28;20038;-77
2021/05/18 14:33:39;;;;;;;2.95;2.67;;;16.90;99.90;;;;;;4123039;28;20038;-76
2021/05/18 14:35:39;;;;;;;3.10;2.80;;;16.90;99.90;;;;;;4127438;28;20039;-76
2021/05/18 14:37:41;;;;;;;3.65;3.03;;;16.90;99.90;;;;;;4125192;28;20130;-76
2021/05/18 14:40:01;;;;;;;4.38;2.53;;;16.90;99.90;;;;;;4125058;28;20042;-77
2021/05/18 14:44:27;;;;;;;3.13;2.83;;;16.90;99.90;;;;;;4121027;28;20060;-77
2021/05/18 14:46:33;;;;;;;5.35;3.42;;;16.80;99.90;;;;;;4119401;28;20464;-76
2021/05/18 14:55:34;;;;;;;3.30;2.78;;;16.60;99.90;;;;;;4119733;28;20038;-77
2021/05/18 14:57:35;;;;;;;3.35;3.05;;;16.60;99.90;;;;;;4124208;28;20501;-77
2021/05/18 14:59:36;;;;;;;6.10;3.20;;;16.60;99.90;;;;;;4124710;28;20030;-76
2021/05/18 15:01:36;;;;;;;3.08;2.58;;;16.50;99.90;;;;;;4123679;28;20463;-77
2021/05/18 15:03:37;;;;;;;4.07;2.75;;;16.50;99.90;;;;;;4107842;28;20046;-77
2021/05/18 15:05:38;;;;;;;2.97;2.72;;;16.50;99.90;;;;;;4128793;28;20030;-77
2021/05/18 15:07:41;;;;;;;5.90;3.30;;;16.50;99.90;;;;;;4133033;28;20038;-77
2021/05/18 15:09:43;;;;;;;4.68;3.35;;;16.50;99.90;;;;;;4129393;28;20104;-77
2021/05/18 15:11:44;;;;;;;4.63;3.23;;;16.40;99.90;;;;;;4120036;28;20050;-77
2021/05/18 15:13:45;;;;;;;3.85;3.10;;;16.30;99.90;;;;;;4126125;28;20069;-77
2021/05/18 15:15:45;;;;;;;7.07;3.95;;;16.30;99.90;;;;;;4124511;28;20043;-77
2021/05/18 15:17:46;;;;;;;3.83;3.00;;;16.10;99.90;;;;;;4126992;28;20040;-77
2021/05/18 15:19:51;;;;;;;3.55;2.95;;;16.10;99.90;;;;;;4124587;28;20061;-77
2021/05/18 15:21:52;;;;;;;4.50;3.42;;;16.20;99.90;;;;;;4110806;28;20130;-77
2021/05/18 15:23:53;;;;;;;4.75;3.30;;;16.20;99.90;;;;;;4129402;28;20049;-77
2021/05/18 15:25:55;;;;;;;5.03;3.53;;;16.20;99.90;;;;;;4127642;28;20092;-77